Surface Preassure
0:00 UTC
12:00 UTC (Click for larger versions)
Andrewsfield Outlook

Current time:


  12:41:35pm (GMT)      12:41:35pm (UTC)


Headline: Mostly dry with some sunny spells.

Today: Much of the region should see a dry day with some sunny spells, although cloud may be thick enough to give the odd light shower here and there. Feeling cooler near the coast with a freshening southeasterly wind. Maximum Temperature 22C.

Tonight: Dry with clear spells at first, but thicker cloud and outbreaks of rain will spread from the southwest after midnight. Minimum Temperature 13C.

Saturday: Starting cloudy with outbreaks of rain, heavy in places, but brighter weather with some sunny spells and scattered showers will spread from the south during the morning. Maximum Temperature 20C.

Outlook for Sunday to Tuesday: Sunny intervals and showers on Sunday, perhaps heavy and prolonged in places. Rain clearing on Monday then Tuesday cooler with sunny intervals and a few showers.

Forecast

Weather warnings

Nearby METAR/TAF

Stansted (EGSS)


Current conditions: VFR

METAR: EGSS 211220Z AUTO 16015KT 130V190 9999 BKN039 21/11 Q1009

TAF: TAF EGSS 211057Z 2112/2218 17012KT 9999 SCT035 TEMPO 2112/2119 17017G27KT TEMPO 2122/2205 7000 RA BKN010 PROB30 TEMPO 2123/2205 4000 +RA BKN006 BECMG 2203/2206 20004KT PROB30 2205/2206 7000 TEMPO 2211/2218 19015G25KT 6000 SHRA

Southend (EGMC)


Current conditions: VFR

METAR: EGMC 211220Z 17017KT 9999 SCT043 20/09 Q1009

TAF: TAF EGMC 211059Z 2112/2121 16014KT 9999 SCT045 PROB40 TEMPO 2112/2116 16017G27KT

RAF Wattisham (EGUW)


Current conditions: VFR

METAR: EGUW 211150Z 18015KT 9999 FEW040 SCT250 20/11 Q1009 BLU NOSIG

TAF: TAF EGUW 211032Z 2112/2119 19010KT 9999 FEW030 BKN045 TEMPO 2112/2119 17015G25KT